Time,TemperatureF,DewpointF,PressureIn,WindDirection,WindDirectionDegrees,WindSpeedMPH,WindSpeedGustMPH,Humidity,HourlyPrecipIn,Conditions,Clouds,dailyrainin,SolarRadiationWatts/m^2,SoftwareType,DateUTC
2013-05-04 00:01:00,48.6,44.0,30.00,NW,309,3.5,3.5,84,0.00,RA,,0.00,0.0,WeatherDisplay:10.37,2013-05-03 22:01:00,
2013-05-04 00:06:00,48.7,44.1,30.01,NW,309,3.5,3.5,84,0.00,RA,,0.00,0.0,WeatherDisplay:10.37,2013-05-03 22:06:00,
2013-05-04 00:11:00,48.8,44.2,30.01,NW,309,2.3,2.3,84,0.00,CLR,,0.00,0.0,WeatherDisplay:10.37,2013-05-03 22:11:00,
2013-05-04 00:16:00,48.9,44.3,30.01,NW,309,3.5,3.5,84,0.00,CLR,,0.00,0.0,WeatherDisplay:10.37,2013-05-03 22:16:00,
2013-05-04 00:21:00,48.9,44.3,30.01,NW,309,2.3,2.3,84,0.00,CLR,,0.00,0.0,WeatherDisplay:10.37,2013-05-03 22:21:00,
2013-05-04 00:26:00,49.0,44.4,30.01,NW,309,2.3,2.3,84,0.00,CLR,,0.00,0.0,WeatherDisplay:10.37,2013-05-03 22:26:00,
2013-05-04 00:31:00,49.0,44.4,30.01,NW,309,2.3,2.3,84,0.00,CLR,,0.00,0.0,WeatherDisplay:10.37,2013-05-03 22:31:00,
2013-05-04 00:38:00,49.1,44.5,30.01,NW,309,1.2,1.2,84,0.00,CLR,,0.00,0.0,WeatherDisplay:10.37,2013-05-03 22:38:00,
2013-05-04 00:43:00,49.1,44.5,30.01,NW,309,2.3,2.3,84,0.00,CLR,,0.00,0.0,WeatherDisplay:10.37,2013-05-03 22:43:00,
2013-05-04 00:48:00,49.1,44.5,30.01,NW,309,3.5,3.5,84,0.00,CLR,,0.00,0.0,WeatherDisplay:10.37,2013-05-03 22:48:00,
2013-05-04 00:53:00,49.1,44.5,30.01,NW,309,3.5,3.5,84,0.00,CLR,,0.00,0.0,WeatherDisplay:10.37,2013-05-03 22:53:00,
2013-05-04 00:58:00,49.1,44.5,30.01,NW,309,4.0,4.0,84,0.00,CLR,,0.00,0.0,WeatherDisplay:10.37,2013-05-03 22:58:00,
2013-05-04 01:03:00,49.2,44.6,30.01,NW,309,1.2,1.2,84,0.00,CLR,,0.00,0.0,WeatherDisplay:10.37,2013-05-03 23:03:00,
2013-05-04 01:08:00,49.2,44.6,30.01,NW,309,2.3,2.3,84,0.00,CLR,,0.00,0.0,WeatherDisplay:10.37,2013-05-03 23:08:00,
2013-05-04 01:13:00,49.2,44.6,30.01,NW,309,2.3,2.3,84,0.00,CLR,,0.00,0.0,WeatherDisplay:10.37,2013-05-03 23:13:00,
2013-05-04 01:18:00,49.2,44.6,30.01,NW,309,2.3,2.3,84,0.00,CLR,,0.00,0.0,WeatherDisplay:10.37,2013-05-03 23:18:00,
2013-05-04 01:23:00,49.2,44.6,30.01,NW,309,1.2,1.2,84,0.00,CLR,,0.00,0.0,WeatherDisplay:10.37,2013-05-03 23:23:00,
2013-05-04 01:28:00,49.2,44.6,30.02,NW,309,2.3,2.3,84,0.00,CLR,,0.00,0.0,WeatherDisplay:10.37,2013-05-03 23:28:00,
2013-05-04 01:33:00,49.2,44.6,30.02,NW,309,2.3,2.3,84,0.00,CLR,,0.00,0.0,WeatherDisplay:10.37,2013-05-03 23:33:00,
2013-05-04 01:38:00,49.2,44.6,30.01,NW,309,2.3,2.3,84,0.00,CLR,,0.00,0.0,WeatherDisplay:10.37,2013-05-03 23:38:00,
2013-05-04 01:43:00,49.2,44.6,30.01,NW,309,3.5,3.5,84,0.00,CLR,,0.00,0.0,WeatherDisplay:10.37,2013-05-03 23:43:00,
2013-05-04 01:48:00,49.2,44.6,30.01,NW,309,1.2,1.2,84,0.00,CLR,,0.00,0.0,WeatherDisplay:10.37,2013-05-03 23:48:00,
2013-05-04 01:53:00,49.2,44.6,30.01,NW,309,2.3,2.3,84,0.00,CLR,,0.00,0.0,WeatherDisplay:10.37,2013-05-03 23:53:00,
2013-05-04 01:58:00,49.2,44.6,30.01,NW,309,2.3,2.3,84,0.00,CLR,,0.00,0.0,WeatherDisplay:10.37,2013-05-03 23:58:00,
2013-05-04 02:03:00,49.2,44.6,30.01,NW,309,2.3,2.3,84,0.00,CLR,,0.00,0.0,WeatherDisplay:10.37,2013-05-04 00:03:00,
2013-05-04 02:08:00,49.2,44.6,30.01,NW,309,1.2,1.2,84,0.00,CLR,,0.00,0.0,WeatherDisplay:10.37,2013-05-04 00:08:00,
2013-05-04 02:13:00,49.2,44.6,30.01,NW,309,0.0,0.0,84,0.00,CLR,,0.00,0.0,WeatherDisplay:10.37,2013-05-04 00:13:00,
2013-05-04 02:19:00,49.2,44.6,30.01,NW,309,0.0,0.0,84,0.00,CLR,,0.00,0.0,WeatherDisplay:10.37,2013-05-04 00:19:00,
2013-05-04 02:24:00,49.1,44.5,30.01,NW,309,0.0,0.0,84,0.00,CLR,,0.00,0.0,WeatherDisplay:10.37,2013-05-04 00:24:00,
2013-05-04 02:29:00,49.1,44.5,30.00,NW,309,0.0,0.0,84,0.00,CLR,,0.00,0.0,WeatherDisplay:10.37,2013-05-04 00:29:00,
2013-05-04 02:34:00,49.1,44.5,30.00,NW,309,0.0,0.0,84,0.00,CLR,,0.00,0.0,WeatherDisplay:10.37,2013-05-04 00:34:00,
2013-05-04 02:39:00,49.0,44.4,30.00,NW,309,0.0,0.0,84,0.00,CLR,,0.00,0.0,WeatherDisplay:10.37,2013-05-04 00:39:00,
2013-05-04 02:44:00,49.0,44.4,30.00,NW,309,1.2,1.2,84,0.00,CLR,,0.00,0.0,WeatherDisplay:10.37,2013-05-04 00:44:00,
2013-05-04 02:49:00,48.9,44.3,30.00,NW,309,1.2,1.2,84,0.00,CLR,,0.00,0.0,WeatherDisplay:10.37,2013-05-04 00:49:00,
2013-05-04 02:54:00,48.8,44.2,30.00,NW,309,0.0,0.0,84,0.00,CLR,,0.00,0.0,WeatherDisplay:10.37,2013-05-04 00:54:00,
2013-05-04 02:59:00,48.8,44.2,30.00,NW,309,0.0,0.0,84,0.00,CLR,,0.00,0.0,WeatherDisplay:10.37,2013-05-04 00:59:00,
2013-05-04 03:04:00,48.7,44.1,30.00,NW,309,0.0,0.0,84,0.00,CLR,,0.00,0.0,WeatherDisplay:10.37,2013-05-04 01:04:00,
2013-05-04 03:09:00,48.7,44.1,30.00,NW,309,0.0,0.0,84,0.00,CLR,,0.00,0.0,WeatherDisplay:10.37,2013-05-04 01:09:00,
2013-05-04 03:14:00,48.5,43.9,30.00,NW,309,3.0,3.0,84,0.00,CLR,,0.00,0.0,WeatherDisplay:10.37,2013-05-04 01:14:00,
2013-05-04 03:19:00,48.4,43.8,30.00,NW,309,2.3,2.3,84,0.00,CLR,,0.00,0.0,WeatherDisplay:10.37,2013-05-04 01:19:00,
2013-05-04 03:24:00,48.2,43.6,30.00,NW,309,1.2,1.2,84,0.00,CLR,,0.00,0.0,WeatherDisplay:10.37,2013-05-04 01:24:00,
2013-05-04 03:29:00,48.0,43.4,30.00,NW,309,3.5,3.5,84,0.00,CLR,,0.00,0.0,WeatherDisplay:10.37,2013-05-04 01:29:00,
2013-05-04 03:34:00,47.8,43.2,30.00,NW,309,3.5,3.5,84,0.00,CLR,,0.00,0.0,WeatherDisplay:10.37,2013-05-04 01:34:00,
2013-05-04 03:39:00,47.6,43.0,30.00,NW,309,2.3,2.3,84,0.00,CLR,,0.00,0.0,WeatherDisplay:10.37,2013-05-04 01:39:00,
2013-05-04 03:44:00,47.4,42.8,30.00,NW,309,2.3,2.3,84,0.00,CLR,,0.00,0.0,WeatherDisplay:10.37,2013-05-04 01:44:00,
2013-05-04 03:49:00,47.2,42.6,30.00,NW,309,2.3,2.3,84,0.00,CLR,,0.00,0.0,WeatherDisplay:10.37,2013-05-04 01:49:00,
2013-05-04 03:54:00,47.0,42.4,30.00,NW,309,2.3,2.3,84,0.00,CLR,,0.00,0.0,WeatherDisplay:10.37,2013-05-04 01:54:00,
2013-05-04 03:59:00,46.8,42.2,30.00,NW,309,3.5,3.5,84,0.00,CLR,,0.00,0.0,WeatherDisplay:10.37,2013-05-04 01:59:00,
2013-05-04 04:04:00,46.7,42.1,30.00,NW,309,3.5,3.5,84,0.00,CLR,,0.00,0.0,WeatherDisplay:10.37,2013-05-04 02:04:00,
2013-05-04 04:09:00,46.5,41.9,30.00,NW,309,2.3,2.3,84,0.00,CLR,,0.00,0.0,WeatherDisplay:10.37,2013-05-04 02:09:00,
2013-05-04 04:14:00,46.3,41.7,30.00,NW,309,3.5,3.5,84,0.00,CLR,,0.00,0.0,WeatherDisplay:10.37,2013-05-04 02:14:00,
2013-05-04 04:19:00,46.1,41.5,30.00,WNW,294,3.5,3.5,84,0.00,CLR,,0.00,0.0,WeatherDisplay:10.37,2013-05-04 02:19:00,
2013-05-04 04:24:00,45.8,41.2,30.00,SW,225,4.0,4.0,84,0.00,CLR,,0.00,0.0,WeatherDisplay:10.37,2013-05-04 02:24:00,
2013-05-04 04:29:00,45.7,41.1,30.00,SW,223,4.0,4.0,84,0.00,CLR,,0.00,0.0,WeatherDisplay:10.37,2013-05-04 02:29:00,
2013-05-04 04:34:00,45.4,40.8,30.01,SW,223,4.6,4.6,84,0.00,CLR,,0.00,0.0,WeatherDisplay:10.37,2013-05-04 02:34:00,
2013-05-04 04:39:00,45.3,40.7,30.01,SW,223,4.6,4.6,84,0.00,CLR,,0.00,0.0,WeatherDisplay:10.37,2013-05-04 02:39:00,
2013-05-04 04:44:00,45.2,40.7,30.01,SW,223,2.3,2.3,84,0.00,CLR,,0.00,0.0,WeatherDisplay:10.37,2013-05-04 02:44:00,
2013-05-04 04:49:00,45.1,40.6,30.01,SW,223,3.5,3.5,84,0.00,CLR,,0.00,0.0,WeatherDisplay:10.37,2013-05-04 02:49:00,
2013-05-04 04:54:00,45.3,40.7,30.01,SW,223,2.3,2.3,84,0.00,CLR,,0.00,0.0,WeatherDisplay:10.37,2013-05-04 02:54:00,
2013-05-04 04:59:00,45.3,40.7,30.01,SW,223,3.5,3.5,84,0.00,CLR,,0.00,0.0,WeatherDisplay:10.37,2013-05-04 02:59:00,
2013-05-04 05:04:00,45.3,40.7,30.01,SW,223,2.3,2.3,84,0.00,CLR,,0.00,0.0,WeatherDisplay:10.37,2013-05-04 03:04:00,
2013-05-04 05:09:00,45.4,40.5,30.01,SW,223,1.2,1.2,83,0.00,OVC,,0.00,0.0,WeatherDisplay:10.37,2013-05-04 03:09:00,
2013-05-04 05:14:00,45.5,40.6,30.01,SW,223,2.3,2.3,83,0.00,OVC,,0.00,0.0,WeatherDisplay:10.37,2013-05-04 03:14:00,
2013-05-04 05:19:00,45.5,40.9,30.01,SW,223,4.0,4.0,84,0.00,OVC,,0.00,0.0,WeatherDisplay:10.37,2013-05-04 03:19:00,
2013-05-04 05:24:00,45.6,41.0,30.01,SW,223,2.3,2.3,84,0.00,OVC,,0.00,0.0,WeatherDisplay:10.37,2013-05-04 03:24:00,
2013-05-04 05:29:00,45.6,41.0,30.01,SW,223,0.0,0.0,84,0.00,OVC,,0.00,0.0,WeatherDisplay:10.37,2013-05-04 03:29:00,
2013-05-04 05:34:00,45.6,41.0,30.01,SW,223,0.0,0.0,84,0.00,OVC,,0.00,0.0,WeatherDisplay:10.37,2013-05-04 03:34:00,
2013-05-04 05:39:00,45.6,41.0,30.01,NNW,346,0.0,0.0,84,0.00,OVC,,0.00,0.0,WeatherDisplay:10.37,2013-05-04 03:39:00,
2013-05-04 05:44:00,45.6,41.0,30.01,NNW,346,0.0,0.0,84,0.00,BKN,,0.00,7.0,WeatherDisplay:10.37,2013-05-04 03:44:00,
2013-05-04 05:49:00,45.6,41.0,30.01,NNW,346,0.0,0.0,84,0.00,OVC,,0.00,9.0,WeatherDisplay:10.37,2013-05-04 03:49:00,
2013-05-04 05:54:00,45.6,41.0,30.01,NNW,346,0.0,0.0,84,0.00,OVC,,0.00,12.0,WeatherDisplay:10.37,2013-05-04 03:54:00,
2013-05-04 05:59:00,45.6,41.0,30.01,NNW,346,0.0,0.0,84,0.00,OVC,,0.00,14.0,WeatherDisplay:10.37,2013-05-04 03:59:00,
2013-05-04 06:01:00,45.6,41.0,30.01,NNW,346,0.0,0.0,84,0.00,OVC,,0.00,16.0,WeatherDisplay:10.37,2013-05-04 04:01:00,
2013-05-04 06:02:00,45.6,41.0,30.01,NNW,346,0.0,0.0,84,0.00,OVC,,0.00,16.0,WeatherDisplay:10.37,2013-05-04 04:02:00,
2013-05-04 06:03:00,45.5,40.9,30.01,NNW,346,0.0,0.0,84,0.00,OVC,,0.00,18.0,WeatherDisplay:10.37,2013-05-04 04:03:00,
2013-05-04 06:04:00,45.5,40.9,30.01,NNW,346,0.0,0.0,84,0.00,OVC,,0.00,18.0,WeatherDisplay:10.37,2013-05-04 04:04:00,
2013-05-04 06:09:00,45.5,40.9,30.01,NNW,346,0.0,0.0,84,0.00,OVC,,0.00,23.0,WeatherDisplay:10.37,2013-05-04 04:09:00,
2013-05-04 06:14:00,45.5,40.6,30.01,NNW,346,0.0,0.0,83,0.00,OVC,,0.00,26.0,WeatherDisplay:10.37,2013-05-04 04:14:00,
2013-05-04 06:19:00,45.4,40.5,30.02,NNW,346,2.0,2.0,83,0.00,OVC,,0.00,32.0,WeatherDisplay:10.37,2013-05-04 04:19:00,
2013-05-04 06:24:00,45.4,40.5,30.02,NNW,346,1.2,1.2,83,0.00,OVC,,0.00,33.0,WeatherDisplay:10.37,2013-05-04 04:24:00,
2013-05-04 06:29:00,45.4,40.8,30.02,NNW,346,1.2,1.2,84,0.00,OVC,,0.00,35.0,WeatherDisplay:10.37,2013-05-04 04:29:00,
2013-05-04 06:34:00,45.4,40.5,30.02,NNW,346,1.2,1.2,83,0.00,OVC,,0.00,39.0,WeatherDisplay:10.37,2013-05-04 04:34:00,
2013-05-04 06:39:00,45.5,40.6,30.02,NNW,346,2.3,2.3,83,0.00,OVC,,0.00,44.0,WeatherDisplay:10.37,2013-05-04 04:39:00,
2013-05-04 06:44:00,45.6,41.0,30.02,NNW,346,1.2,0.0,84,0.00,OVC,,0.00,51.0,WeatherDisplay:10.37,2013-05-04 04:44:00,
2013-05-04 06:49:00,45.6,41.0,30.02,NNW,346,0.0,0.0,84,0.00,BKN,,0.00,62.0,WeatherDisplay:10.37,2013-05-04 04:49:00,
2013-05-04 06:54:00,45.8,40.9,30.02,NNW,346,0.0,0.0,83,0.00,BKN,,0.00,76.0,WeatherDisplay:10.37,2013-05-04 04:54:00,
2013-05-04 06:59:00,46.0,41.1,30.02,NNW,346,0.0,0.0,83,0.00,BKN,,0.00,76.0,WeatherDisplay:10.37,2013-05-04 04:59:00,
2013-05-04 07:04:00,46.3,41.4,30.02,NNW,346,1.2,1.2,83,0.00,OVC,,0.00,83.0,WeatherDisplay:10.37,2013-05-04 05:04:00,
2013-05-04 07:09:00,46.7,41.8,30.02,NNW,346,0.0,0.0,83,0.00,BKN,,0.00,102.0,WeatherDisplay:10.37,2013-05-04 05:09:00,
2013-05-04 07:14:00,47.1,42.2,30.02,NNW,346,0.0,0.0,83,0.00,SCT,,0.00,174.0,WeatherDisplay:10.37,2013-05-04 05:14:00,
2013-05-04 07:19:00,47.6,42.7,30.02,NNW,346,0.0,0.0,83,0.00,SCT,,0.00,193.0,WeatherDisplay:10.37,2013-05-04 05:19:00,
2013-05-04 07:24:00,48.2,43.3,30.02,NNW,346,1.2,0.0,83,0.00,FEW,,0.00,223.0,WeatherDisplay:10.37,2013-05-04 05:24:00,
2013-05-04 07:29:00,49.0,44.4,30.02,NNW,346,1.2,0.0,84,0.00,BKN,,0.00,156.0,WeatherDisplay:10.37,2013-05-04 05:29:00,
2013-05-04 07:34:00,49.9,45.3,30.02,NNW,346,1.2,1.2,84,0.00,BKN,,0.00,123.0,WeatherDisplay:10.37,2013-05-04 05:34:00,
2013-05-04 07:39:00,50.2,45.6,30.02,NNW,346,1.2,1.2,84,0.00,OVC,,0.00,121.0,WeatherDisplay:10.37,2013-05-04 05:39:00,
2013-05-04 07:44:00,50.5,45.8,30.02,NNW,346,2.3,2.3,84,0.00,OVC,,0.00,114.0,WeatherDisplay:10.37,2013-05-04 05:44:00,
2013-05-04 07:49:00,50.7,46.0,30.02,NNW,346,2.3,2.3,84,0.00,OVC,,0.00,132.0,WeatherDisplay:10.37,2013-05-04 05:49:00,
2013-05-04 07:54:00,50.8,45.8,30.02,NNW,346,2.3,2.3,83,0.00,BKN,,0.00,160.0,WeatherDisplay:10.37,2013-05-04 05:54:00,
2013-05-04 07:59:00,50.9,45.9,30.03,NNW,346,1.2,1.2,83,0.00,BKN,,0.00,188.0,WeatherDisplay:10.37,2013-05-04 05:59:00,
2013-05-04 08:04:00,51.1,46.1,30.03,NNW,346,2.3,2.3,83,0.00,BKN,,0.00,179.0,WeatherDisplay:10.37,2013-05-04 06:04:00,
2013-05-04 08:09:00,51.3,46.3,30.03,NNW,346,1.2,0.0,83,0.00,BKN,,0.00,190.0,WeatherDisplay:10.37,2013-05-04 06:09:00,
2013-05-04 08:14:00,51.4,46.4,30.03,NNW,346,2.3,2.3,83,0.00,BKN,,0.00,193.0,WeatherDisplay:10.37,2013-05-04 06:14:00,
2013-05-04 08:19:00,51.6,46.3,30.04,NNW,346,0.0,0.0,82,0.00,BKN,,0.00,171.0,WeatherDisplay:10.37,2013-05-04 06:19:00,
2013-05-04 08:24:00,51.7,46.4,30.04,NNW,346,0.0,0.0,82,0.00,BKN,,0.00,181.0,WeatherDisplay:10.37,2013-05-04 06:24:00,
2013-05-04 08:29:00,51.9,46.3,30.04,NNW,346,0.0,0.0,81,0.00,BKN,,0.00,199.0,WeatherDisplay:10.37,2013-05-04 06:29:00,
2013-05-04 08:34:00,52.3,46.6,30.04,NNW,346,3.5,3.5,81,0.00,BKN,,0.00,190.0,WeatherDisplay:10.37,2013-05-04 06:34:00,
2013-05-04 08:39:00,52.5,46.5,30.05,NNW,346,1.2,1.2,80,0.00,OVC,,0.00,181.0,WeatherDisplay:10.37,2013-05-04 06:39:00,
2013-05-04 08:44:00,52.7,46.7,30.05,NNW,346,0.0,0.0,80,0.00,OVC,,0.00,160.0,WeatherDisplay:10.37,2013-05-04 06:44:00,
2013-05-04 08:50:00,53.0,47.7,30.05,NNW,346,3.5,3.5,82,0.00,OVC,,0.00,146.0,WeatherDisplay:10.37,2013-05-04 06:50:00,
2013-05-04 08:55:00,53.2,47.5,30.05,SSW,194,4.0,4.0,81,0.00,OVC,,0.00,149.0,WeatherDisplay:10.37,2013-05-04 06:55:00,
2013-05-04 09:00:00,53.2,47.2,30.05,SSW,194,3.5,3.5,80,0.00,OVC,,0.00,153.0,WeatherDisplay:10.37,2013-05-04 07:00:00,
2013-05-04 09:05:00,53.3,47.3,30.05,SSW,194,3.5,3.5,80,0.00,OVC,,0.00,146.0,WeatherDisplay:10.37,2013-05-04 07:05:00,
2013-05-04 09:10:00,53.3,47.3,30.05,SSW,194,4.0,4.0,80,0.00,OVC,,0.00,132.0,WeatherDisplay:10.37,2013-05-04 07:10:00,
2013-05-04 09:15:00,53.4,47.4,30.05,SSW,194,4.0,4.0,80,0.00,OVC,,0.00,128.0,WeatherDisplay:10.37,2013-05-04 07:15:00,
2013-05-04 09:20:00,53.4,47.0,30.05,SSW,194,3.5,3.5,79,0.00,OVC,,0.00,128.0,WeatherDisplay:10.37,2013-05-04 07:20:00,
2013-05-04 09:25:00,53.4,47.0,30.06,SSW,194,3.5,3.5,79,0.00,OVC,,0.00,139.0,WeatherDisplay:10.37,2013-05-04 07:25:00,
2013-05-04 09:30:00,53.5,47.1,30.06,SSW,194,3.5,3.5,79,0.00,OVC,,0.00,128.0,WeatherDisplay:10.37,2013-05-04 07:30:00,
2013-05-04 09:35:00,53.5,47.5,30.06,SSW,194,1.2,1.2,80,0.00,OVC,,0.00,128.0,WeatherDisplay:10.37,2013-05-04 07:35:00,
2013-05-04 09:40:00,53.6,47.2,30.06,SSW,194,3.5,3.5,79,0.00,OVC,,0.00,135.0,WeatherDisplay:10.37,2013-05-04 07:40:00,
2013-05-04 09:45:00,53.5,47.1,30.06,SSW,194,2.3,0.0,79,0.00,OVC,,0.00,137.0,WeatherDisplay:10.37,2013-05-04 07:45:00,
2013-05-04 09:50:00,53.4,47.0,30.06,SSW,194,2.3,2.3,79,0.00,OVC,,0.00,134.0,WeatherDisplay:10.37,2013-05-04 07:50:00,
2013-05-04 09:55:00,53.4,47.4,30.06,SSW,194,1.0,1.0,80,0.00,OVC,,0.00,139.0,WeatherDisplay:10.37,2013-05-04 07:55:00,
2013-05-04 10:00:00,53.4,47.7,30.06,SSW,194,0.0,0.0,81,0.00,OVC,,0.00,163.0,WeatherDisplay:10.37,2013-05-04 08:00:00,
2013-05-04 10:05:00,53.6,48.2,30.06,SSW,194,2.3,2.3,82,0.00,OVC,,0.01,149.0,WeatherDisplay:10.37,2013-05-04 08:05:00,
2013-05-04 10:10:00,53.6,47.9,30.06,SSW,194,1.0,1.0,81,0.01,RA,,0.01,123.0,WeatherDisplay:10.37,2013-05-04 08:10:00,
2013-05-04 10:15:00,53.5,47.8,30.06,SSW,194,0.0,0.0,81,0.01,RA,,0.01,135.0,WeatherDisplay:10.37,2013-05-04 08:15:00,
2013-05-04 10:20:00,53.4,47.7,30.07,SSW,194,0.0,0.0,81,0.01,OVC,,0.01,139.0,WeatherDisplay:10.37,2013-05-04 08:20:00,
2013-05-04 10:25:00,53.4,47.7,30.07,SSW,194,2.3,2.3,81,0.01,OVC,,0.01,130.0,WeatherDisplay:10.37,2013-05-04 08:25:00,
2013-05-04 10:30:00,53.6,48.2,30.07,SSW,194,2.3,2.3,82,0.01,OVC,,0.01,120.0,WeatherDisplay:10.37,2013-05-04 08:30:00,
2013-05-04 10:35:00,53.6,48.2,30.07,SSW,194,1.2,1.2,82,0.01,OVC,,0.01,123.0,WeatherDisplay:10.37,2013-05-04 08:35:00,
2013-05-04 10:40:00,53.6,48.2,30.07,SSW,194,4.0,4.0,82,0.01,OVC,,0.01,127.0,WeatherDisplay:10.37,2013-05-04 08:40:00,
2013-05-04 10:45:00,53.5,48.1,30.07,SSW,194,1.2,1.2,82,0.02,RA,,0.02,123.0,WeatherDisplay:10.37,2013-05-04 08:45:00,
2013-05-04 10:50:00,53.5,48.5,30.07,SSW,194,4.6,4.6,83,0.02,RA,,0.02,118.0,WeatherDisplay:10.37,2013-05-04 08:50:00,
2013-05-04 10:55:00,53.4,48.4,30.08,SSW,194,3.5,3.5,83,0.02,RA,,0.02,120.0,WeatherDisplay:10.37,2013-05-04 08:55:00,
2013-05-04 11:00:00,53.2,48.2,30.08,SSW,194,3.5,3.5,83,0.03,RA,,0.03,135.0,WeatherDisplay:10.37,2013-05-04 09:00:00,
2013-05-04 11:06:00,53.1,48.1,30.08,SSW,194,3.5,3.5,83,0.02,RA,,0.03,148.0,WeatherDisplay:10.37,2013-05-04 09:06:00,
2013-05-04 11:11:00,53.0,48.0,30.08,SSW,194,3.5,3.5,83,0.03,RA,,0.04,141.0,WeatherDisplay:10.37,2013-05-04 09:11:00,
2013-05-04 11:16:00,52.9,47.9,30.08,SSW,194,4.0,4.0,83,0.03,RA,,0.05,141.0,WeatherDisplay:10.37,2013-05-04 09:16:00,
2013-05-04 11:21:00,52.8,47.8,30.08,SSW,194,3.5,3.5,83,0.04,RA,,0.05,148.0,WeatherDisplay:10.37,2013-05-04 09:21:00,
2013-05-04 11:26:00,52.7,47.7,30.08,SSW,194,4.0,4.0,83,0.05,RA,,0.06,167.0,WeatherDisplay:10.37,2013-05-04 09:26:00,
2013-05-04 11:31:00,52.7,47.7,30.08,SSW,193,4.0,4.0,83,0.05,RA,,0.06,186.0,WeatherDisplay:10.37,2013-05-04 09:31:00,
2013-05-04 11:36:00,52.8,48.1,30.08,SSW,193,5.0,5.0,84,0.05,OVC,,0.06,178.0,WeatherDisplay:10.37,2013-05-04 09:36:00,
2013-05-04 11:41:00,52.7,47.7,30.08,ESE,121,6.0,6.0,83,0.04,OVC,,0.06,158.0,WeatherDisplay:10.37,2013-05-04 09:41:00,
2013-05-04 11:46:00,52.7,47.7,30.08,SSE,164,6.9,6.9,83,0.05,RA,,0.06,148.0,WeatherDisplay:10.37,2013-05-04 09:46:00,
2013-05-04 11:51:00,52.5,47.5,30.08,SSE,166,4.6,4.6,83,0.04,RA,,0.06,158.0,WeatherDisplay:10.37,2013-05-04 09:51:00,
2013-05-04 11:56:00,52.4,47.4,30.08,South,169,5.0,5.0,83,0.04,OVC,,0.06,151.0,WeatherDisplay:10.37,2013-05-04 09:56:00,
2013-05-04 12:01:00,52.4,47.4,30.08,South,169,2.0,2.0,83,0.03,OVC,,0.06,156.0,WeatherDisplay:10.37,2013-05-04 10:01:00,
2013-05-04 12:06:00,52.4,47.7,30.08,South,169,0.0,0.0,84,0.03,OVC,,0.06,200.0,WeatherDisplay:10.37,2013-05-04 10:06:00,
2013-05-04 12:11:00,52.5,47.5,30.08,South,169,2.3,0.0,83,0.02,OVC,,0.06,297.0,WeatherDisplay:10.37,2013-05-04 10:11:00,
2013-05-04 12:16:00,52.6,47.6,30.08,South,169,1.2,1.2,83,0.02,BKN,,0.06,436.0,WeatherDisplay:10.37,2013-05-04 10:16:00,
2013-05-04 12:21:00,53.1,48.4,30.08,South,169,4.0,4.0,84,0.02,BKN,,0.06,497.0,WeatherDisplay:10.37,2013-05-04 10:21:00,
2013-05-04 12:26:00,53.5,48.5,30.08,SSE,163,3.5,3.5,83,0.01,BKN,,0.06,497.0,WeatherDisplay:10.37,2013-05-04 10:26:00,
2013-05-04 12:31:00,53.7,48.7,30.08,SSE,163,1.2,1.2,83,0.01,OVC,,0.06,306.0,WeatherDisplay:10.37,2013-05-04 10:31:00,
2013-05-04 12:36:00,53.9,48.9,30.08,SSE,163,2.0,2.0,83,0.01,BKN,,0.06,371.0,WeatherDisplay:10.37,2013-05-04 10:36:00,
2013-05-04 12:41:00,54.1,49.1,30.07,East,82,3.5,3.5,83,0.01,OVC,,0.06,396.0,WeatherDisplay:10.37,2013-05-04 10:41:00,
2013-05-04 12:46:00,54.4,49.3,30.08,East,83,3.0,3.0,83,0.00,OVC,,0.06,348.0,WeatherDisplay:10.37,2013-05-04 10:46:00,
2013-05-04 12:51:00,54.5,49.1,30.08,East,84,1.2,1.2,82,0.00,OVC,,0.06,341.0,WeatherDisplay:10.37,2013-05-04 10:51:00,
2013-05-04 12:56:00,54.8,49.7,30.07,East,88,3.0,3.0,83,0.00,BKN,,0.06,390.0,WeatherDisplay:10.37,2013-05-04 10:56:00,
2013-05-04 13:01:00,55.0,49.9,30.07,ENE,76,4.0,4.0,83,0.00,OVC,,0.06,353.0,WeatherDisplay:10.37,2013-05-04 11:01:00,
2013-05-04 13:06:00,55.1,49.7,30.07,ENE,76,1.2,1.2,82,0.00,BKN,,0.06,397.0,WeatherDisplay:10.37,2013-05-04 11:06:00,
2013-05-04 13:11:00,55.3,49.9,30.07,East,89,2.3,2.3,82,0.00,BKN,,0.06,415.0,WeatherDisplay:10.37,2013-05-04 11:11:00,
2013-05-04 13:16:00,55.6,50.2,30.07,East,82,3.5,3.5,82,0.00,OVC,,0.06,367.0,WeatherDisplay:10.37,2013-05-04 11:16:00,
2013-05-04 13:21:00,55.7,50.3,30.07,ENE,78,2.3,2.3,82,0.00,BKN,,0.06,392.0,WeatherDisplay:10.37,2013-05-04 11:21:00,
2013-05-04 13:26:00,55.9,50.2,30.07,ENE,76,3.5,3.5,81,0.00,BKN,,0.06,475.0,WeatherDisplay:10.37,2013-05-04 11:26:00,
2013-05-04 13:31:00,56.6,51.2,30.07,ENE,76,3.5,3.5,82,0.00,SCT,,0.06,578.0,WeatherDisplay:10.37,2013-05-04 11:31:00,
2013-05-04 13:36:00,57.3,50.8,30.07,ENE,78,3.5,3.5,79,0.00,FEW,,0.06,698.0,WeatherDisplay:10.37,2013-05-04 11:36:00,
2013-05-04 13:41:00,58.6,52.8,30.07,ENE,64,3.5,3.5,81,0.00,FEW,,0.06,826.0,WeatherDisplay:10.37,2013-05-04 11:41:00,
2013-05-04 13:46:00,59.7,53.5,30.07,ENE,72,4.0,4.0,80,0.00,FEW,,0.06,494.0,WeatherDisplay:10.37,2013-05-04 11:46:00,
2013-05-04 13:51:00,59.2,52.7,30.07,ENE,75,0.0,0.0,79,0.00,BKN,,0.06,420.0,WeatherDisplay:10.37,2013-05-04 11:51:00,
2013-05-04 13:56:00,59.4,51.8,30.07,ENE,75,2.3,2.3,76,0.00,BKN,,0.06,478.0,WeatherDisplay:10.37,2013-05-04 11:56:00,
2013-05-04 14:01:00,58.8,51.2,30.07,ENE,76,3.5,3.5,76,0.00,BKN,,0.06,404.0,WeatherDisplay:10.37,2013-05-04 12:01:00,
2013-05-04 14:06:00,58.6,51.1,30.06,SE,140,2.3,2.3,76,0.00,BKN,,0.06,462.0,WeatherDisplay:10.37,2013-05-04 12:06:00,
2013-05-04 14:12:00,58.8,52.0,30.06,SE,140,2.3,2.3,78,0.00,BKN,,0.06,401.0,WeatherDisplay:10.37,2013-05-04 12:12:00,
2013-05-04 14:17:00,59.5,52.3,30.06,SE,145,4.0,4.0,77,0.00,BKN,,0.06,441.0,WeatherDisplay:10.37,2013-05-04 12:17:00,
2013-05-04 14:22:00,60.0,50.9,30.06,ESE,120,5.0,5.0,72,0.00,FEW,,0.06,823.0,WeatherDisplay:10.37,2013-05-04 12:22:00,
2013-05-04 14:27:00,60.7,53.4,30.06,SW,224,3.5,3.5,77,0.00,FEW,,0.06,780.0,WeatherDisplay:10.37,2013-05-04 12:27:00,
2013-05-04 14:32:00,61.2,52.5,30.06,SW,223,1.2,1.2,73,0.00,FEW,,0.06,742.0,WeatherDisplay:10.37,2013-05-04 12:32:00,
2013-05-04 14:37:00,61.6,52.1,30.06,WSW,250,4.0,4.0,71,0.00,FEW,,0.06,729.0,WeatherDisplay:10.37,2013-05-04 12:37:00,
2013-05-04 14:42:00,62.3,52.4,30.06,WSW,251,4.6,4.6,70,0.00,FEW,,0.06,721.0,WeatherDisplay:10.37,2013-05-04 12:42:00,
2013-05-04 14:47:00,62.2,53.1,30.06,WSW,251,2.3,2.3,72,0.00,FEW,,0.06,738.0,WeatherDisplay:10.37,2013-05-04 12:47:00,
2013-05-04 14:52:00,62.3,53.5,30.06,West,269,3.5,3.5,73,0.00,FEW,,0.06,726.0,WeatherDisplay:10.37,2013-05-04 12:52:00,
2013-05-04 14:57:00,62.8,54.0,30.06,SW,227,5.8,5.8,73,0.00,FEW,,0.06,717.0,WeatherDisplay:10.37,2013-05-04 12:57:00,
2013-05-04 15:02:00,63.0,52.7,30.06,SW,234,3.5,3.5,69,0.00,FEW,,0.06,707.0,WeatherDisplay:10.37,2013-05-04 13:02:00,
2013-05-04 15:07:00,63.5,53.5,30.06,SW,234,1.2,1.2,70,0.00,FEW,,0.06,348.0,WeatherDisplay:10.37,2013-05-04 13:07:00,
2013-05-04 15:12:00,63.4,54.2,30.06,West,271,4.0,4.0,72,0.00,FEW,,0.06,731.0,WeatherDisplay:10.37,2013-05-04 13:12:00,
2013-05-04 15:17:00,62.8,53.6,30.05,WNW,286,3.5,3.5,72,0.00,OVC,,0.06,202.0,WeatherDisplay:10.37,2013-05-04 13:17:00,
2013-05-04 15:22:00,62.0,52.1,30.05,WNW,295,3.5,3.5,70,0.00,BKN,,0.06,338.0,WeatherDisplay:10.37,2013-05-04 13:22:00,
2013-05-04 15:27:00,61.4,52.3,30.05,WNW,296,0.0,0.0,72,0.00,BKN,,0.06,348.0,WeatherDisplay:10.37,2013-05-04 13:27:00,
2013-05-04 15:32:00,61.6,52.5,30.05,WNW,298,3.5,3.5,72,0.00,FEW,,0.06,673.0,WeatherDisplay:10.37,2013-05-04 13:32:00,
2013-05-04 15:37:00,62.1,52.6,30.05,NW,309,3.5,3.5,71,0.00,FEW,,0.06,622.0,WeatherDisplay:10.37,2013-05-04 13:37:00,
2013-05-04 15:42:00,63.0,54.6,30.05,NW,306,5.0,5.0,74,0.00,FEW,,0.06,635.0,WeatherDisplay:10.37,2013-05-04 13:42:00,
2013-05-04 15:47:00,63.6,52.8,30.05,NW,306,2.0,2.0,68,0.00,FEW,,0.06,599.0,WeatherDisplay:10.37,2013-05-04 13:47:00,
2013-05-04 15:52:00,63.4,53.0,30.05,NW,309,3.5,3.5,69,0.00,SCT,,0.06,570.0,WeatherDisplay:10.37,2013-05-04 13:52:00,
2013-05-04 15:57:00,64.4,55.6,30.05,West,263,4.0,4.0,73,0.00,SCT,,0.06,545.0,WeatherDisplay:10.37,2013-05-04 13:57:00,
2013-05-04 16:02:00,64.4,53.6,30.05,West,263,3.5,3.5,68,0.00,SCT,,0.06,540.0,WeatherDisplay:10.37,2013-05-04 14:02:00,
2013-05-04 16:07:00,64.4,54.0,30.05,West,263,1.2,0.0,69,0.00,SCT,,0.06,536.0,WeatherDisplay:10.37,2013-05-04 14:07:00,
2013-05-04 16:12:00,64.0,53.2,30.04,West,267,3.5,3.5,68,0.00,SCT,,0.06,526.0,WeatherDisplay:10.37,2013-05-04 14:12:00,
2013-05-04 16:17:00,63.4,52.7,30.04,NNE,28,4.6,4.6,68,0.00,SCT,,0.06,520.0,WeatherDisplay:10.37,2013-05-04 14:17:00,
2013-05-04 16:22:00,63.3,53.3,30.04,NE,51,3.5,3.5,70,0.00,SCT,,0.06,506.0,WeatherDisplay:10.37,2013-05-04 14:22:00,
2013-05-04 16:27:00,63.9,53.1,30.04,NE,51,1.2,1.2,68,0.00,FEW,,0.06,510.0,WeatherDisplay:10.37,2013-05-04 14:27:00,
2013-05-04 16:32:00,64.5,54.5,30.04,NE,45,3.5,3.5,70,0.00,SCT,,0.06,483.0,WeatherDisplay:10.37,2013-05-04 14:32:00,
2013-05-04 16:37:00,65.0,54.6,30.04,NNE,13,4.0,4.0,69,0.00,SCT,,0.06,471.0,WeatherDisplay:10.37,2013-05-04 14:37:00,
2013-05-04 16:42:00,64.9,53.7,30.04,North,11,3.5,3.5,67,0.00,SCT,,0.06,396.0,WeatherDisplay:10.37,2013-05-04 14:42:00,
2013-05-04 16:47:00,64.3,53.9,30.04,North,11,3.0,3.0,69,0.00,OVC,,0.06,155.0,WeatherDisplay:10.37,2013-05-04 14:47:00,
2013-05-04 16:52:00,63.7,53.7,30.04,North,11,2.3,2.3,70,0.00,OVC,,0.06,176.0,WeatherDisplay:10.37,2013-05-04 14:52:00,
2013-05-04 16:57:00,63.2,52.9,30.04,North,11,0.0,0.0,69,0.00,BKN,,0.06,221.0,WeatherDisplay:10.37,2013-05-04 14:57:00,
2013-05-04 17:02:00,62.9,53.4,30.04,North,11,3.5,3.5,71,0.00,BKN,,0.06,243.0,WeatherDisplay:10.37,2013-05-04 15:02:00,
2013-05-04 17:07:00,63.2,54.4,30.04,North,11,3.5,3.5,73,0.00,SCT,,0.06,306.0,WeatherDisplay:10.37,2013-05-04 15:07:00,
2013-05-04 17:12:00,64.0,54.8,30.04,North,360,4.0,4.0,72,0.00,FEW,,0.06,450.0,WeatherDisplay:10.37,2013-05-04 15:12:00,
2013-05-04 17:17:00,64.5,54.1,30.03,North,350,3.5,3.5,69,0.00,SCT,,0.06,330.0,WeatherDisplay:10.37,2013-05-04 15:17:00,
2013-05-04 17:22:00,64.2,53.0,30.03,North,350,2.3,2.3,67,0.00,FEW,,0.06,459.0,WeatherDisplay:10.37,2013-05-04 15:22:00,
2013-05-04 17:27:00,64.3,52.7,30.03,North,355,3.5,3.5,66,0.00,CLR,,0.06,469.0,WeatherDisplay:10.37,2013-05-04 15:27:00,
2013-05-04 17:32:00,63.9,53.1,30.03,North,355,3.5,3.5,68,0.00,BKN,,0.06,199.0,WeatherDisplay:10.37,2013-05-04 15:32:00,
2013-05-04 17:37:00,63.5,53.1,30.03,North,355,3.5,3.5,69,0.00,OVC,,0.06,146.0,WeatherDisplay:10.37,2013-05-04 15:37:00,
2013-05-04 17:42:00,62.9,52.2,30.03,North,355,3.5,3.5,68,0.00,OVC,,0.06,155.0,WeatherDisplay:10.37,2013-05-04 15:42:00,
2013-05-04 17:47:00,63.1,52.4,30.03,North,355,2.3,2.3,68,0.00,FEW,,0.06,366.0,WeatherDisplay:10.37,2013-05-04 15:47:00,
2013-05-04 17:52:00,63.8,53.4,30.03,North,355,2.3,2.3,69,0.00,FEW,,0.06,338.0,WeatherDisplay:10.37,2013-05-04 15:52:00,
2013-05-04 17:57:00,64.3,53.5,30.03,North,355,3.5,3.5,68,0.00,FEW,,0.06,306.0,WeatherDisplay:10.37,2013-05-04 15:57:00,
2013-05-04 18:02:00,64.3,53.9,30.03,North,355,3.5,3.5,69,0.00,SCT,,0.06,265.0,WeatherDisplay:10.37,2013-05-04 16:02:00,
2013-05-04 18:07:00,64.1,53.7,30.03,North,360,3.5,3.5,69,0.00,SCT,,0.06,255.0,WeatherDisplay:10.37,2013-05-04 16:07:00,
2013-05-04 18:12:00,63.8,53.4,30.03,ENE,67,6.0,6.0,69,0.00,SCT,,0.06,255.0,WeatherDisplay:10.37,2013-05-04 16:12:00,
2013-05-04 18:17:00,63.3,53.7,30.03,NE,49,4.6,4.6,71,0.00,FEW,,0.06,262.0,WeatherDisplay:10.37,2013-05-04 16:17:00,
2013-05-04 18:22:00,63.1,53.2,30.03,ENE,67,3.5,3.5,70,0.00,FEW,,0.06,246.0,WeatherDisplay:10.37,2013-05-04 16:22:00,
2013-05-04 18:27:00,63.2,53.3,30.03,ENE,77,3.5,3.5,70,0.00,SCT,,0.06,218.0,WeatherDisplay:10.37,2013-05-04 16:27:00,
2013-05-04 18:32:00,63.4,53.8,30.04,ENE,77,3.5,3.5,71,0.00,SCT,,0.06,213.0,WeatherDisplay:10.37,2013-05-04 16:32:00,
2013-05-04 18:37:00,63.3,53.0,30.04,ENE,73,3.5,3.5,69,0.00,SCT,,0.06,188.0,WeatherDisplay:10.37,2013-05-04 16:37:00,
2013-05-04 18:42:00,63.2,54.4,30.04,ENE,73,3.5,3.5,73,0.00,SCT,,0.06,165.0,WeatherDisplay:10.37,2013-05-04 16:42:00,
2013-05-04 18:47:00,63.1,53.9,30.04,ENE,73,2.3,2.3,72,0.00,BKN,,0.06,118.0,WeatherDisplay:10.37,2013-05-04 16:47:00,
2013-05-04 18:52:00,62.6,53.1,30.04,NE,54,5.0,5.0,71,0.00,BKN,,0.06,111.0,WeatherDisplay:10.37,2013-05-04 16:52:00,
2013-05-04 18:57:00,62.1,53.0,30.04,NE,54,3.5,3.5,72,0.00,OVC,,0.06,67.0,WeatherDisplay:10.37,2013-05-04 16:57:00,
2013-05-04 19:02:00,61.6,52.5,30.04,NE,54,4.0,4.0,72,0.00,OVC,,0.06,40.0,WeatherDisplay:10.37,2013-05-04 17:02:00,
2013-05-04 19:07:00,61.1,52.4,30.04,NE,54,3.5,3.5,73,0.00,OVC,,0.06,53.0,WeatherDisplay:10.37,2013-05-04 17:07:00,
2013-05-04 19:12:00,60.7,52.7,30.04,NE,54,3.5,3.5,75,0.00,OVC,,0.06,30.0,WeatherDisplay:10.37,2013-05-04 17:12:00,
2013-05-04 19:17:00,60.3,52.7,30.04,NE,54,2.0,2.0,76,0.00,OVC,,0.06,18.0,WeatherDisplay:10.37,2013-05-04 17:17:00,
2013-05-04 19:22:00,60.1,52.5,30.04,NE,54,3.5,3.5,76,0.00,OVC,,0.06,14.0,WeatherDisplay:10.37,2013-05-04 17:22:00,
2013-05-04 19:27:00,60.1,52.1,30.05,NE,54,2.3,2.3,75,0.00,OVC,,0.06,12.0,WeatherDisplay:10.37,2013-05-04 17:27:00,
2013-05-04 19:32:00,60.0,52.4,30.05,NE,54,1.2,1.2,76,0.00,OVC,,0.06,12.0,WeatherDisplay:10.37,2013-05-04 17:32:00,
2013-05-04 19:37:00,59.8,52.2,30.04,NE,54,0.0,0.0,76,0.00,OVC,,0.06,11.0,WeatherDisplay:10.37,2013-05-04 17:37:00,
2013-05-04 19:42:00,59.5,51.9,30.04,NE,54,3.5,3.5,76,0.00,OVC,,0.06,11.0,WeatherDisplay:10.37,2013-05-04 17:42:00,
2013-05-04 19:47:00,59.2,52.0,30.04,NE,54,2.3,2.3,77,0.00,OVC,,0.06,11.0,WeatherDisplay:10.37,2013-05-04 17:47:00,
2013-05-04 19:52:00,58.9,51.7,30.04,NE,54,2.3,2.3,77,0.00,OVC,,0.06,9.0,WeatherDisplay:10.37,2013-05-04 17:52:00,
2013-05-04 19:57:00,58.7,51.9,30.04,NE,54,0.0,0.0,78,0.00,OVC,,0.06,9.0,WeatherDisplay:10.37,2013-05-04 17:57:00,
2013-05-04 20:02:00,58.5,51.7,30.05,NE,54,0.0,0.0,78,0.00,OVC,,0.06,5.0,WeatherDisplay:10.37,2013-05-04 18:02:00,
2013-05-04 20:07:00,58.3,51.8,30.05,NE,54,0.0,0.0,79,0.00,OVC,,0.06,5.0,WeatherDisplay:10.37,2013-05-04 18:07:00,
2013-05-04 20:12:00,58.0,51.9,30.06,NE,54,0.0,0.0,80,0.00,OVC,,0.06,0.0,WeatherDisplay:10.37,2013-05-04 18:12:00,
2013-05-04 20:17:00,57.8,51.7,30.06,NE,54,0.0,0.0,80,0.00,OVC,,0.06,0.0,WeatherDisplay:10.37,2013-05-04 18:17:00,
2013-05-04 20:22:00,57.5,51.7,30.06,NE,54,0.0,0.0,81,0.00,OVC,,0.06,0.0,WeatherDisplay:10.37,2013-05-04 18:22:00,
2013-05-04 20:27:00,57.2,51.4,30.06,NE,54,0.0,0.0,81,0.00,OVC,,0.06,0.0,WeatherDisplay:10.37,2013-05-04 18:27:00,
2013-05-04 20:32:00,57.0,51.2,30.06,NE,54,0.0,0.0,81,0.00,OVC,,0.06,0.0,WeatherDisplay:10.37,2013-05-04 18:32:00,
2013-05-04 20:37:00,56.9,51.5,30.07,NE,54,1.0,1.0,82,0.00,OVC,,0.06,0.0,WeatherDisplay:10.37,2013-05-04 18:37:00,
2013-05-04 20:42:00,56.8,51.4,30.06,NE,54,2.3,2.3,82,0.00,OVC,,0.06,0.0,WeatherDisplay:10.37,2013-05-04 18:42:00,
2013-05-04 20:47:00,56.7,51.3,30.07,NE,54,1.2,1.2,82,0.00,OVC,,0.06,0.0,WeatherDisplay:10.37,2013-05-04 18:47:00,
2013-05-04 20:52:00,56.7,51.3,30.07,NE,54,2.3,2.3,82,0.00,OVC,,0.06,0.0,WeatherDisplay:10.37,2013-05-04 18:52:00,
2013-05-04 20:57:00,56.6,51.2,30.07,NE,54,3.5,3.5,82,0.00,CLR,,0.06,0.0,WeatherDisplay:10.37,2013-05-04 18:57:00,
2013-05-04 21:02:00,56.5,51.4,30.07,ENE,74,2.0,2.0,83,0.00,CLR,,0.07,0.0,WeatherDisplay:10.37,2013-05-04 19:02:00,
2013-05-04 21:07:00,56.4,51.3,30.08,ENE,74,2.0,2.0,83,0.01,RA,,0.07,0.0,WeatherDisplay:10.37,2013-05-04 19:07:00,
2013-05-04 21:12:00,56.3,51.2,30.08,ENE,74,0.0,0.0,83,0.01,RA,,0.07,0.0,WeatherDisplay:10.37,2013-05-04 19:12:00,
2013-05-04 21:17:00,56.3,51.2,30.08,East,99,3.5,3.5,83,0.01,CLR,,0.08,0.0,WeatherDisplay:10.37,2013-05-04 19:17:00,
2013-05-04 21:22:00,56.2,51.1,30.08,East,99,2.3,2.3,83,0.02,RA,,0.08,0.0,WeatherDisplay:10.37,2013-05-04 19:22:00,
2013-05-04 21:27:00,56.2,51.1,30.08,East,89,3.5,3.5,83,0.02,RA,,0.08,0.0,WeatherDisplay:10.37,2013-05-04 19:27:00,
2013-05-04 21:32:00,56.1,51.0,30.08,East,89,3.0,3.0,83,0.02,CLR,,0.08,0.0,WeatherDisplay:10.37,2013-05-04 19:32:00,
2013-05-04 21:37:00,55.9,50.8,30.08,East,89,0.0,0.0,83,0.02,CLR,,0.08,0.0,WeatherDisplay:10.37,2013-05-04 19:37:00,
2013-05-04 21:42:00,55.8,50.7,30.08,East,89,1.2,1.2,83,0.02,CLR,,0.08,0.0,WeatherDisplay:10.37,2013-05-04 19:42:00,
2013-05-04 21:47:00,55.6,50.5,30.08,East,89,1.2,0.0,83,0.02,CLR,,0.08,0.0,WeatherDisplay:10.37,2013-05-04 19:47:00,
2013-05-04 21:52:00,55.3,50.2,30.09,East,89,0.0,0.0,83,0.02,CLR,,0.08,0.0,WeatherDisplay:10.37,2013-05-04 19:52:00,
2013-05-04 21:57:00,55.1,50.0,30.09,East,89,0.0,0.0,83,0.02,CLR,,0.08,0.0,WeatherDisplay:10.37,2013-05-04 19:57:00,
2013-05-04 22:02:00,54.8,49.7,30.09,East,89,2.0,2.0,83,0.02,CLR,,0.08,0.0,WeatherDisplay:10.37,2013-05-04 20:02:00,
2013-05-04 22:07:00,54.6,49.5,30.09,East,89,3.5,3.5,83,0.01,CLR,,0.08,0.0,WeatherDisplay:10.37,2013-05-04 20:07:00,
2013-05-04 22:12:00,54.2,49.1,30.09,East,90,4.0,4.0,83,0.01,CLR,,0.08,0.0,WeatherDisplay:10.37,2013-05-04 20:12:00,
2013-05-04 22:17:00,54.0,49.0,30.09,East,90,2.0,2.0,83,0.01,CLR,,0.08,0.0,WeatherDisplay:10.37,2013-05-04 20:17:00,
2013-05-04 22:22:00,53.7,48.7,30.09,East,90,4.6,4.6,83,0.00,CLR,,0.08,0.0,WeatherDisplay:10.37,2013-05-04 20:22:00,
2013-05-04 22:27:00,53.5,48.5,30.09,East,90,0.0,0.0,83,0.00,CLR,,0.08,0.0,WeatherDisplay:10.37,2013-05-04 20:27:00,
2013-05-04 22:32:00,53.3,48.3,30.09,East,90,0.0,0.0,83,0.00,CLR,,0.08,0.0,WeatherDisplay:10.37,2013-05-04 20:32:00,
2013-05-04 22:37:00,53.1,48.1,30.10,East,90,2.3,2.3,83,0.00,CLR,,0.08,0.0,WeatherDisplay:10.37,2013-05-04 20:37:00,
2013-05-04 22:42:00,52.8,47.8,30.10,East,90,2.3,2.3,83,0.00,CLR,,0.08,0.0,WeatherDisplay:10.37,2013-05-04 20:42:00,
2013-05-04 22:47:00,52.7,47.7,30.10,East,90,2.0,2.0,83,0.00,CLR,,0.08,0.0,WeatherDisplay:10.37,2013-05-04 20:47:00,
2013-05-04 22:52:00,52.5,47.5,30.10,East,90,4.0,4.0,83,0.00,CLR,,0.08,0.0,WeatherDisplay:10.37,2013-05-04 20:52:00,
2013-05-04 22:57:00,52.3,47.3,30.11,East,90,2.3,2.3,83,0.00,CLR,,0.08,0.0,WeatherDisplay:10.37,2013-05-04 20:57:00,
2013-05-04 23:02:00,52.1,47.1,30.10,East,90,1.2,1.2,83,0.00,CLR,,0.08,0.0,WeatherDisplay:10.37,2013-05-04 21:02:00,
2013-05-04 23:07:00,51.8,46.8,30.11,East,90,0.0,0.0,83,0.00,CLR,,0.08,0.0,WeatherDisplay:10.37,2013-05-04 21:07:00,
2013-05-04 23:12:00,51.6,46.6,30.11,East,90,0.0,0.0,83,0.00,CLR,,0.08,0.0,WeatherDisplay:10.37,2013-05-04 21:12:00,
2013-05-04 23:17:00,51.4,46.4,30.10,East,90,0.0,0.0,83,0.00,CLR,,0.08,0.0,WeatherDisplay:10.37,2013-05-04 21:17:00,
2013-05-04 23:22:00,51.3,46.3,30.11,East,90,1.2,1.2,83,0.00,CLR,,0.08,0.0,WeatherDisplay:10.37,2013-05-04 21:22:00,
2013-05-04 23:27:00,51.2,46.2,30.11,East,90,2.3,2.3,83,0.00,CLR,,0.08,0.0,WeatherDisplay:10.37,2013-05-04 21:27:00,
2013-05-04 23:32:00,51.1,46.1,30.11,East,90,4.0,4.0,83,0.00,CLR,,0.08,0.0,WeatherDisplay:10.37,2013-05-04 21:32:00,
2013-05-04 23:37:00,51.0,46.0,30.11,East,94,3.5,3.5,83,0.00,CLR,,0.08,0.0,WeatherDisplay:10.37,2013-05-04 21:37:00,
2013-05-04 23:42:00,50.9,45.9,30.11,East,94,4.0,4.0,83,0.00,CLR,,0.08,0.0,WeatherDisplay:10.37,2013-05-04 21:42:00,
2013-05-04 23:47:00,50.8,45.8,30.11,East,96,4.0,4.0,83,0.00,CLR,,0.08,0.0,WeatherDisplay:10.37,2013-05-04 21:47:00,
2013-05-04 23:52:00,50.7,45.7,30.11,East,101,4.0,4.0,83,0.00,CLR,,0.08,0.0,WeatherDisplay:10.37,2013-05-04 21:52:00,
2013-05-04 23:57:00,50.6,45.6,30.12,SSW,192,5.8,5.8,83,0.00,CLR,,0.08,0.0,WeatherDisplay:10.37,2013-05-04 21:57:00,